Fort Severn Airport
CYER : now visible

Airfield :











YOU CAN JOIN US ON...

 
LOGIN :

Register | Disclaimer

   EN    FR    IT 

 









Legend :    VFR   Marginal VFR   IFR   Intensive IFR   Very Intensive IFR
Visi :
Ceiling :
>= 8 km
>= 3000ft
5 to 8 km
1000 to 3000 ft
1500m to 5 km
500 to 1000 ft
800 to 1500m
200 to 500 ft
< 800m
< 200 ft
Symbols :   Thunderstorms  Fog  Heavy snow  Heavy precipitations  Wind > 20 kt






- Airport Elevation : 48 ft
- IATA code : YER


CYER - Fort Severn

CURRENT METAR :
  • 191000Z AUTO 14011KT 9SM OVC120 12/09 A2967 RMK SLP050

EXPIRED METARs :
  • 190900Z AUTO 14008KT 9SM OVC110 12/09 A2971 RMK SLP062
  • 190841Z AUTO 13010KT 9SM OVC110 11/09 A2972 RMK SLP066
  • 190816Z AUTO 14009G15KT 9SM -RA OVC110 12/09 A2973 RMK SLP069
  • 190814Z AUTO 14008G15KT 9SM OVC110 12/09 A2973 RMK SLP069
  • 190753Z AUTO 13012KT 9SM -RA OVC110 12/08 A2973 RMK PRESFR SLP071

TAF TAF CYER
Valid from the 19 at 09:00 until the 19 at 19:00 UTC


190838Z 1909/1919 14008G18KT P6SM OVC090
TEMPO 1909/1911 P6SM -SHRA
BECMG 1909/1911 13012G25KT
FM191100 13012G25KT P6SM SCT080 BKN250
FM191500 13012G22KT P6SM BKN150 RMK FCST BASED ON AUTO OBS. NXT FCST BY 191500Z
CZWG FIR / North America



MET'MAP, your aeronautical weather chart ! - Copyright ORBIFLY December 2007 - Disclaimer

ORBIFLY MET'MAP TEAM :

Programming & Development : Alexandra Zaïnal
Concept & original design : Baudouin d'Aumeries
Assistance for programming : Marc-Olivier Méhu
Technical & hardware support : Manuel Goepfert

Contact : metmap@orbifly.com




SOURCES & CREDITS :

   NOAA       Earth
Advisory